createdAt,value
2023-12-09T00:00:23.560Z,7.50
2023-12-09T00:02:52.773Z,7.40
2023-12-09T00:05:20.860Z,7.40
2023-12-09T00:07:48.931Z,7.40
2023-12-09T00:10:17.009Z,7.30
2023-12-09T00:12:49.351Z,7.40
2023-12-09T00:15:17.569Z,7.30
2023-12-09T00:17:45.677Z,7.30
2023-12-09T00:20:14.212Z,7.40
2023-12-09T00:22:43.270Z,7.40
2023-12-09T00:25:11.766Z,7.40
2023-12-09T00:27:40.018Z,7.50
2023-12-09T00:30:10.806Z,7.50
2023-12-09T00:32:39.228Z,7.50
2023-12-09T00:35:08.362Z,7.50
2023-12-09T00:37:36.734Z,7.50
2023-12-09T00:40:06.629Z,7.50
2023-12-09T00:42:34.803Z,7.40
2023-12-09T00:45:03.870Z,7.40
2023-12-09T00:47:33.400Z,7.50
2023-12-09T00:50:01.703Z,7.50
2023-12-09T00:52:30.496Z,7.50
2023-12-09T00:54:59.043Z,7.50
2023-12-09T00:57:27.434Z,7.50
2023-12-09T00:59:55.720Z,7.50
2023-12-09T01:02:24.356Z,7.50
2023-12-09T01:04:54.244Z,7.50
2023-12-09T01:07:22.340Z,7.50
2023-12-09T01:09:50.367Z,7.50
2023-12-09T01:12:18.488Z,7.50
2023-12-09T01:14:46.940Z,7.50
2023-12-09T01:17:15.138Z,7.50
2023-12-09T01:19:43.756Z,7.50
2023-12-09T01:22:14.209Z,7.50
2023-12-09T01:24:42.727Z,7.50
2023-12-09T01:27:10.874Z,7.40
2023-12-09T01:29:39.109Z,7.40
2023-12-09T01:32:08.501Z,7.50
2023-12-09T01:34:40.177Z,7.50
2023-12-09T01:37:08.524Z,7.50
2023-12-09T01:39:41.275Z,7.50
2023-12-09T01:42:11.014Z,7.60
2023-12-09T01:44:39.537Z,7.70
2023-12-09T01:47:08.762Z,7.70
2023-12-09T01:49:38.735Z,7.70
2023-12-09T01:52:08.376Z,7.80
2023-12-09T01:54:38.848Z,7.80
2023-12-09T01:57:08.385Z,7.90
2023-12-09T01:59:36.619Z,7.90
2023-12-09T02:02:04.764Z,7.90
2023-12-09T02:04:33.139Z,7.90
2023-12-09T02:07:01.225Z,7.90
2023-12-09T02:09:29.800Z,7.90
2023-12-09T02:12:08.437Z,7.90
2023-12-09T02:14:47.950Z,7.90
2023-12-09T02:17:22.876Z,8.00
2023-12-09T02:19:52.717Z,8.00
2023-12-09T02:22:21.445Z,8.00
2023-12-09T02:24:51.288Z,8.00
2023-12-09T02:27:33.500Z,8.00
2023-12-09T02:30:10.718Z,7.90
2023-12-09T02:32:41.297Z,7.90
2023-12-09T02:35:13.074Z,7.90
2023-12-09T02:37:44.455Z,7.80
2023-12-09T02:40:18.594Z,7.70
2023-12-09T02:42:50.418Z,7.60
2023-12-09T02:45:21.372Z,7.60
2023-12-09T02:47:49.578Z,7.50
2023-12-09T02:50:17.934Z,7.40
2023-12-09T02:52:46.574Z,7.30
2023-12-09T02:55:16.089Z,7.30
2023-12-09T02:57:44.667Z,7.20
2023-12-09T03:00:14.187Z,7.10
2023-12-09T03:02:42.465Z,7.10
2023-12-09T03:05:10.822Z,7.00
2023-12-09T03:07:39.335Z,7.00
2023-12-09T03:10:08.915Z,6.90
2023-12-09T03:12:38.681Z,6.90
2023-12-09T03:15:09.020Z,6.90
2023-12-09T03:17:38.440Z,6.80
2023-12-09T03:20:10.248Z,6.80
2023-12-09T03:22:38.933Z,6.80
2023-12-09T03:25:07.817Z,6.80
2023-12-09T03:27:36.094Z,6.70
2023-12-09T03:30:07.520Z,6.70
2023-12-09T03:32:35.595Z,6.80
2023-12-09T03:35:04.220Z,6.80
2023-12-09T03:37:33.067Z,6.80
2023-12-09T03:40:01.122Z,6.80
2023-12-09T03:42:29.753Z,6.70
2023-12-09T03:44:58.024Z,6.70
2023-12-09T03:47:29.614Z,6.70
2023-12-09T03:49:58.279Z,6.70
2023-12-09T03:52:27.130Z,6.70
2023-12-09T03:54:55.357Z,6.70
2023-12-09T03:57:24.812Z,6.70
2023-12-09T03:59:53.526Z,6.60
2023-12-09T04:02:21.671Z,6.60
2023-12-09T04:04:51.847Z,6.70
2023-12-09T04:07:19.920Z,6.70
2023-12-09T04:09:48.337Z,6.70
2023-12-09T04:12:16.608Z,6.70
2023-12-09T04:14:45.065Z,6.70
2023-12-09T04:17:13.685Z,6.70
2023-12-09T04:19:41.844Z,6.60
2023-12-09T04:22:11.539Z,6.60
2023-12-09T04:24:41.653Z,6.60
2023-12-09T04:27:09.820Z,6.60
2023-12-09T04:29:37.933Z,6.70
2023-12-09T04:32:06.805Z,6.70
2023-12-09T04:34:36.657Z,6.60
2023-12-09T04:37:05.042Z,6.60
2023-12-09T04:39:35.213Z,6.60
2023-12-09T04:42:03.352Z,6.60
2023-12-09T04:44:31.446Z,6.50
2023-12-09T04:46:59.884Z,6.50
2023-12-09T04:49:28.053Z,6.50
2023-12-09T04:51:56.166Z,6.50
2023-12-09T04:54:25.070Z,6.50
2023-12-09T04:56:55.576Z,6.50
2023-12-09T04:59:23.673Z,6.50
2023-12-09T05:01:51.802Z,6.50
2023-12-09T05:04:20.971Z,6.50
2023-12-09T05:06:49.577Z,6.50
2023-12-09T05:09:17.816Z,6.50
2023-12-09T05:11:46.398Z,6.50
2023-12-09T05:14:15.917Z,6.40
2023-12-09T05:16:44.692Z,6.40
2023-12-09T05:19:13.591Z,6.30
2023-12-09T05:21:42.075Z,6.30
2023-12-09T05:24:10.197Z,6.20
2023-12-09T05:26:38.847Z,6.20
2023-12-09T05:29:07.876Z,6.10
2023-12-09T05:31:38.033Z,6.00
2023-12-09T05:34:06.262Z,6.00
2023-12-09T05:36:35.141Z,5.90
2023-12-09T05:39:03.961Z,5.90
2023-12-09T05:41:32.016Z,5.90
2023-12-09T05:44:00.814Z,5.90
2023-12-09T05:46:28.994Z,5.80
2023-12-09T05:48:58.724Z,5.80
2023-12-09T05:51:27.065Z,5.80
2023-12-09T05:53:55.141Z,5.80
2023-12-09T05:56:23.400Z,5.80
2023-12-09T05:58:52.080Z,5.80
2023-12-09T06:01:20.124Z,5.70
2023-12-09T06:03:48.262Z,5.60
2023-12-09T06:06:17.961Z,5.60
2023-12-09T06:08:46.229Z,5.50
2023-12-09T06:11:14.633Z,5.40
2023-12-09T06:13:43.396Z,5.40
2023-12-09T06:16:11.556Z,5.40
2023-12-09T06:18:40.041Z,5.30
2023-12-09T06:21:08.559Z,5.30
2023-12-09T06:23:40.362Z,5.30
2023-12-09T06:26:08.729Z,5.30
2023-12-09T06:28:39.058Z,5.30
2023-12-09T06:31:08.382Z,5.40
2023-12-09T06:33:37.002Z,5.40
2023-12-09T06:36:07.007Z,5.50
2023-12-09T06:38:35.895Z,5.50
2023-12-09T06:41:05.635Z,5.60
2023-12-09T06:43:34.454Z,5.60
2023-12-09T06:46:02.494Z,5.60
2023-12-09T06:48:30.761Z,5.60
2023-12-09T06:50:58.945Z,5.70
2023-12-09T06:53:27.025Z,5.70
2023-12-09T06:55:55.351Z,5.70
2023-12-09T06:58:24.753Z,5.80
2023-12-09T07:00:52.923Z,5.80
2023-12-09T07:03:21.238Z,5.80
2023-12-09T07:05:50.266Z,5.80
2023-12-09T07:08:18.374Z,5.90
2023-12-09T07:10:47.655Z,5.90
2023-12-09T07:13:15.756Z,5.90
2023-12-09T07:15:45.256Z,6.00
2023-12-09T07:18:15.878Z,6.00
2023-12-09T07:20:46.423Z,6.00
2023-12-09T07:23:15.377Z,6.10
2023-12-09T07:25:43.467Z,6.10
2023-12-09T07:28:12.418Z,6.10
2023-12-09T07:30:40.491Z,6.10
2023-12-09T07:33:10.056Z,6.20
2023-12-09T07:35:38.625Z,6.20
2023-12-09T07:38:07.607Z,6.20
2023-12-09T07:40:36.069Z,6.20
2023-12-09T07:43:04.884Z,6.20
2023-12-09T07:45:33.405Z,6.30
2023-12-09T07:48:01.700Z,6.30
2023-12-09T07:50:33.662Z,6.40
2023-12-09T07:53:01.751Z,6.40
2023-12-09T07:55:30.294Z,6.50
2023-12-09T07:57:58.376Z,6.50
2023-12-09T08:00:28.321Z,6.50
2023-12-09T08:02:57.637Z,6.50
2023-12-09T08:05:27.295Z,6.60
2023-12-09T08:07:57.191Z,6.60
2023-12-09T08:10:25.461Z,6.60
2023-12-09T08:12:53.713Z,6.60
2023-12-09T08:15:21.870Z,6.70
2023-12-09T08:17:50.220Z,6.70
2023-12-09T08:20:18.555Z,6.80
2023-12-09T08:22:46.614Z,6.90
2023-12-09T08:25:16.604Z,6.90
2023-12-09T08:27:45.698Z,7.00
2023-12-09T08:30:14.842Z,7.00
2023-12-09T08:32:43.497Z,7.10
2023-12-09T08:35:13.058Z,7.10
2023-12-09T08:37:42.159Z,7.20
2023-12-09T08:40:13.393Z,7.20
2023-12-09T08:42:45.242Z,7.30
2023-12-09T08:45:15.565Z,7.30
2023-12-09T08:47:45.570Z,7.40
2023-12-09T08:50:22.671Z,7.50
2023-12-09T08:52:54.210Z,7.70
2023-12-09T08:55:23.028Z,7.80
2023-12-09T08:57:54.162Z,7.90
2023-12-09T09:00:27.050Z,8.10
2023-12-09T09:02:57.315Z,8.20
2023-12-09T09:05:25.863Z,8.30
2023-12-09T09:07:54.023Z,8.30
2023-12-09T09:10:22.109Z,8.40
2023-12-09T09:12:50.321Z,8.50
2023-12-09T09:15:21.424Z,8.60
2023-12-09T09:17:49.806Z,8.60
2023-12-09T09:20:17.955Z,8.60
2023-12-09T09:22:48.060Z,8.70
2023-12-09T09:25:17.265Z,8.70
2023-12-09T09:27:45.576Z,8.70
2023-12-09T09:30:15.096Z,8.80
2023-12-09T09:32:44.685Z,8.80
2023-12-09T09:35:13.359Z,8.80
2023-12-09T09:37:41.502Z,8.90
2023-12-09T09:40:12.904Z,8.90
2023-12-09T09:42:47.951Z,9.00
2023-12-09T09:45:28.221Z,9.00
2023-12-09T09:48:07.177Z,9.00
2023-12-09T09:50:43.212Z,8.90
2023-12-09T09:53:15.596Z,9.00
2023-12-09T09:55:43.856Z,8.90
2023-12-09T09:58:14.342Z,9.00
2023-12-09T10:00:43.075Z,9.00
2023-12-09T10:03:12.987Z,9.00
2023-12-09T10:05:41.476Z,9.10
2023-12-09T10:08:09.856Z,9.10
2023-12-09T10:10:38.023Z,9.20
2023-12-09T10:13:06.296Z,9.20
2023-12-09T10:15:34.749Z,9.20
2023-12-09T10:18:05.604Z,9.30
2023-12-09T10:20:36.954Z,9.40
2023-12-09T10:23:05.283Z,9.40
2023-12-09T10:25:33.664Z,9.50
2023-12-09T10:28:02.488Z,9.50
2023-12-09T10:30:31.635Z,9.50
2023-12-09T10:33:01.282Z,9.50
2023-12-09T10:35:31.483Z,9.60
2023-12-09T10:38:06.732Z,9.60
2023-12-09T10:40:35.947Z,9.60
2023-12-09T10:43:05.012Z,9.70
2023-12-09T10:45:33.172Z,9.70
2023-12-09T10:48:01.793Z,9.70
2023-12-09T10:50:32.469Z,9.80
2023-12-09T10:53:01.369Z,9.80
2023-12-09T10:55:31.384Z,9.90
2023-12-09T10:58:00.810Z,9.80
2023-12-09T11:00:31.692Z,9.80
2023-12-09T11:03:01.321Z,9.80
2023-12-09T11:05:31.329Z,9.70
2023-12-09T11:08:01.484Z,9.70
2023-12-09T11:10:31.197Z,9.60
2023-12-09T11:13:00.007Z,9.60
2023-12-09T11:15:32.687Z,9.60
2023-12-09T11:18:13.058Z,9.50
2023-12-09T11:20:43.236Z,9.50
2023-12-09T11:23:12.789Z,9.50
2023-12-09T11:25:45.199Z,9.50
2023-12-09T11:28:14.538Z,9.50
2023-12-09T11:30:46.123Z,9.60
2023-12-09T11:33:15.074Z,9.60
2023-12-09T11:35:47.456Z,9.70
2023-12-09T11:38:18.483Z,9.80
2023-12-09T11:40:48.840Z,9.80
2023-12-09T11:43:18.030Z,9.80
2023-12-09T11:45:46.183Z,9.80
2023-12-09T11:48:15.116Z,9.80
2023-12-09T11:50:44.219Z,9.70
2023-12-09T11:53:12.301Z,9.80
2023-12-09T11:55:41.684Z,9.80
2023-12-09T11:58:11.484Z,9.90
2023-12-09T12:00:39.646Z,10.00
2023-12-09T12:03:07.883Z,10.00
2023-12-09T12:05:37.631Z,10.10
2023-12-09T12:08:06.654Z,10.20
2023-12-09T12:10:35.962Z,10.20
2023-12-09T12:13:06.048Z,10.30
2023-12-09T12:15:36.582Z,10.50
2023-12-09T12:18:05.511Z,10.60
2023-12-09T12:20:33.655Z,10.70
2023-12-09T12:23:02.621Z,10.80
2023-12-09T12:25:30.868Z,10.80
2023-12-09T12:27:59.284Z,10.90
2023-12-09T12:34:47.502Z,10.90
2023-12-09T12:37:15.642Z,10.80
2023-12-09T12:39:43.849Z,10.70
2023-12-09T12:42:12.021Z,10.70
2023-12-09T12:44:43.898Z,10.70
2023-12-09T12:47:11.937Z,10.60
2023-12-09T12:49:40.039Z,10.60
2023-12-09T12:52:09.658Z,10.50
2023-12-09T12:54:37.758Z,10.40
2023-12-09T12:57:06.698Z,10.40
2023-12-09T12:59:34.766Z,10.30
2023-12-09T13:02:03.006Z,10.20
2023-12-09T13:04:31.126Z,10.10
2023-12-09T13:06:59.542Z,10.10
2023-12-09T13:09:29.212Z,10.00
2023-12-09T13:11:57.354Z,10.00
2023-12-09T13:14:27.301Z,9.90
2023-12-09T13:16:56.316Z,9.80
2023-12-09T13:19:24.508Z,9.80
2023-12-09T13:21:52.747Z,9.70
2023-12-09T13:24:20.977Z,9.70
2023-12-09T13:26:50.743Z,9.70
2023-12-09T13:29:19.292Z,9.60
2023-12-09T13:31:47.568Z,9.60
2023-12-09T13:34:15.738Z,9.60
2023-12-09T13:36:45.247Z,9.50
2023-12-09T13:39:15.476Z,9.50
2023-12-09T13:41:44.167Z,9.50
2023-12-09T13:44:14.645Z,9.40
2023-12-09T13:46:43.322Z,9.40
2023-12-09T13:49:11.481Z,9.30
2023-12-09T13:51:39.880Z,9.20
2023-12-09T13:54:08.928Z,9.20
2023-12-09T13:56:40.532Z,9.20
2023-12-09T13:59:08.874Z,9.20
2023-12-09T14:01:38.363Z,9.20
2023-12-09T14:04:07.054Z,9.20
2023-12-09T14:06:35.652Z,9.20
2023-12-09T14:09:04.056Z,9.20
2023-12-09T14:11:32.376Z,9.30
2023-12-09T14:14:00.469Z,9.20
2023-12-09T14:16:28.667Z,9.20
2023-12-09T14:18:58.165Z,9.10
2023-12-09T14:21:26.476Z,9.00
2023-12-09T14:23:54.582Z,9.00
2023-12-09T14:26:22.898Z,8.90
2023-12-09T14:28:50.951Z,8.80
2023-12-09T14:31:19.155Z,8.80
2023-12-09T14:33:47.585Z,8.70
2023-12-09T14:36:17.302Z,8.70
2023-12-09T14:38:45.487Z,8.70
2023-12-09T14:41:13.877Z,8.70
2023-12-09T14:43:42.293Z,8.60
2023-12-09T14:46:11.302Z,8.70
2023-12-09T14:48:39.589Z,8.60
2023-12-09T14:51:09.300Z,8.60
2023-12-09T14:53:38.752Z,8.60
2023-12-09T14:56:07.839Z,8.50
2023-12-09T14:58:36.564Z,8.50
2023-12-09T15:01:05.960Z,8.40
2023-12-09T15:03:34.447Z,8.40
2023-12-09T15:06:02.602Z,8.40
2023-12-09T15:08:30.786Z,8.30
2023-12-09T15:11:00.275Z,8.30
2023-12-09T15:13:28.886Z,8.30
2023-12-09T15:15:57.119Z,8.20
2023-12-09T15:18:25.734Z,8.20
2023-12-09T15:20:54.074Z,8.10
2023-12-09T15:23:22.604Z,8.10
2023-12-09T15:25:51.235Z,8.00
2023-12-09T15:28:21.356Z,8.00
2023-12-09T15:30:49.557Z,7.90
2023-12-09T15:33:19.629Z,7.90
2023-12-09T15:35:48.322Z,7.80
2023-12-09T15:38:16.606Z,7.80
2023-12-09T15:40:46.553Z,7.80
2023-12-09T15:43:15.824Z,7.80
2023-12-09T15:45:46.332Z,7.80
2023-12-09T15:48:14.897Z,7.80
2023-12-09T15:50:44.302Z,7.80
2023-12-09T15:53:13.410Z,7.80
2023-12-09T15:55:42.067Z,7.70
2023-12-09T15:58:10.528Z,7.70
2023-12-09T16:00:40.171Z,7.70
2023-12-09T16:03:12.303Z,7.70
2023-12-09T16:05:40.962Z,7.70
2023-12-09T16:08:09.628Z,7.70
2023-12-09T16:10:37.793Z,7.70
2023-12-09T16:13:06.227Z,7.70
2023-12-09T16:15:34.365Z,7.70
2023-12-09T16:18:02.691Z,7.70
2023-12-09T16:23:21.149Z,7.80
2023-12-09T16:25:49.902Z,7.80
2023-12-09T16:28:18.100Z,7.80
2023-12-09T16:30:47.002Z,7.90
2023-12-09T16:33:15.291Z,7.80
2023-12-09T16:35:44.249Z,7.90
2023-12-09T16:38:13.001Z,7.80
2023-12-09T16:40:45.306Z,7.80
2023-12-09T16:43:13.691Z,7.80
2023-12-09T16:45:42.130Z,7.70
2023-12-09T16:48:10.463Z,7.70
2023-12-09T16:50:38.761Z,7.60
2023-12-09T16:53:07.201Z,7.60
2023-12-09T16:55:35.253Z,7.60
2023-12-09T16:58:05.583Z,7.60
2023-12-09T17:00:34.514Z,7.60
2023-12-09T17:03:03.127Z,7.60
2023-12-09T17:05:31.866Z,7.70
2023-12-09T17:07:59.930Z,7.70
2023-12-09T17:10:28.435Z,7.70
2023-12-09T17:12:57.133Z,7.70
2023-12-09T17:15:26.645Z,7.80
2023-12-09T17:17:56.655Z,7.80
2023-12-09T17:20:24.639Z,7.90
2023-12-09T17:22:53.050Z,7.90
2023-12-09T17:25:21.425Z,7.90
2023-12-09T17:27:52.133Z,7.90
2023-12-09T17:30:20.282Z,7.90
2023-12-09T17:32:51.142Z,7.90
2023-12-09T17:35:19.306Z,7.90
2023-12-09T17:37:47.354Z,7.90
2023-12-09T17:40:15.611Z,7.90
2023-12-09T17:42:43.719Z,8.00
2023-12-09T17:45:13.013Z,8.00
2023-12-09T17:47:41.110Z,8.00
2023-12-09T17:50:11.769Z,8.00
2023-12-09T17:52:40.122Z,8.00
2023-12-09T17:55:10.275Z,8.00
2023-12-09T17:57:38.470Z,8.00
2023-12-09T18:00:09.389Z,8.00
2023-12-09T18:02:37.528Z,7.90
2023-12-09T18:05:06.565Z,8.00
2023-12-09T18:07:36.734Z,8.00
2023-12-09T18:10:05.735Z,8.00
2023-12-09T18:12:33.884Z,8.00
2023-12-09T18:15:02.313Z,8.00
2023-12-09T18:17:30.431Z,8.00
2023-12-09T18:19:58.496Z,8.00
2023-12-09T18:22:26.793Z,8.10
2023-12-09T18:24:56.484Z,8.10
2023-12-09T18:27:25.516Z,8.10
2023-12-09T18:29:54.735Z,8.20
2023-12-09T18:32:25.504Z,8.20
2023-12-09T18:34:53.675Z,8.20
2023-12-09T18:37:22.966Z,8.20
2023-12-09T18:39:51.948Z,8.20
2023-12-09T18:42:21.373Z,8.30
2023-12-09T18:44:49.536Z,8.40
2023-12-09T18:47:19.326Z,8.60
2023-12-09T18:49:47.691Z,8.70
2023-12-09T18:52:16.665Z,8.90
2023-12-09T18:54:44.841Z,8.90
2023-12-09T18:57:13.477Z,9.00
2023-12-09T18:59:43.021Z,9.10
2023-12-09T19:02:14.889Z,9.20
2023-12-09T19:04:44.461Z,9.20
2023-12-09T19:07:13.180Z,9.20
2023-12-09T19:09:43.087Z,9.30
2023-12-09T19:12:12.476Z,9.30
2023-12-09T19:14:42.181Z,9.30
2023-12-09T19:17:10.995Z,9.30
2023-12-09T19:19:39.568Z,9.30
2023-12-09T19:22:07.755Z,9.30
2023-12-09T19:24:36.586Z,9.30
2023-12-09T19:27:06.246Z,9.30
2023-12-09T19:29:34.304Z,9.40
2023-12-09T19:32:03.920Z,9.50
2023-12-09T19:34:32.096Z,9.40
2023-12-09T19:37:01.649Z,9.50
2023-12-09T19:39:29.771Z,9.50
2023-12-09T19:41:57.919Z,9.60
2023-12-09T19:44:26.694Z,9.60
2023-12-09T19:46:55.103Z,9.60
2023-12-09T19:49:25.681Z,9.60
2023-12-09T19:51:54.507Z,9.60
2023-12-09T19:54:22.590Z,9.50
2023-12-09T19:56:51.093Z,9.50
2023-12-09T19:59:19.148Z,9.50
2023-12-09T20:01:47.412Z,9.50
2023-12-09T20:04:15.590Z,9.50
2023-12-09T20:06:45.216Z,9.40
2023-12-09T20:09:13.386Z,9.40
2023-12-09T20:11:41.458Z,9.40
2023-12-09T20:14:09.836Z,9.40
2023-12-09T20:16:37.900Z,9.40
2023-12-09T20:19:08.499Z,9.40
2023-12-09T20:21:37.764Z,9.40
2023-12-09T20:24:08.792Z,9.40
2023-12-09T20:26:37.170Z,9.40
2023-12-09T20:29:06.048Z,9.40
2023-12-09T20:31:34.467Z,9.40
2023-12-09T20:34:02.765Z,9.30
2023-12-09T20:36:31.332Z,9.20
2023-12-09T20:38:59.462Z,9.20
2023-12-09T20:41:29.777Z,9.10
2023-12-09T20:43:57.827Z,9.10
2023-12-09T20:46:28.285Z,9.10
2023-12-09T20:48:56.429Z,9.20
2023-12-09T20:51:26.293Z,9.20
2023-12-09T20:53:54.812Z,9.20
2023-12-09T20:56:22.904Z,9.20
2023-12-09T20:58:52.591Z,9.30
2023-12-09T21:01:21.027Z,9.30
2023-12-09T21:03:49.517Z,9.30
2023-12-09T21:06:18.150Z,9.30
2023-12-09T21:08:46.620Z,9.40
2023-12-09T21:11:14.817Z,9.40
2023-12-09T21:13:43.226Z,9.50
2023-12-09T21:18:59.593Z,9.60
2023-12-09T21:21:28.498Z,9.70
2023-12-09T21:23:56.517Z,9.70
2023-12-09T21:26:25.225Z,9.70
2023-12-09T21:28:53.288Z,9.80
2023-12-09T21:31:23.281Z,9.80
2023-12-09T21:33:51.558Z,9.70
2023-12-09T21:36:19.801Z,9.70
2023-12-09T21:38:48.193Z,9.70
2023-12-09T21:41:24.115Z,9.70
2023-12-09T21:43:53.194Z,9.70
2023-12-09T21:46:23.934Z,9.70
2023-12-09T21:48:55.203Z,9.70
2023-12-09T21:51:24.300Z,9.80
2023-12-09T21:53:52.672Z,9.80
2023-12-09T21:56:21.964Z,9.80
2023-12-09T21:58:50.828Z,9.80
2023-12-09T22:01:19.587Z,9.80
2023-12-09T22:03:49.896Z,9.80
2023-12-09T22:06:18.134Z,9.70
2023-12-09T22:08:46.596Z,9.70
2023-12-09T22:11:14.966Z,9.60
2023-12-09T22:13:43.099Z,9.50
2023-12-09T22:16:11.958Z,9.40
2023-12-09T22:18:40.790Z,9.30
2023-12-09T22:21:11.429Z,9.20
2023-12-09T22:23:39.993Z,9.20
2023-12-09T22:26:08.321Z,9.20
2023-12-09T22:28:39.911Z,9.10
2023-12-09T22:31:09.763Z,9.10
2023-12-09T22:33:41.794Z,9.10
2023-12-09T22:36:12.331Z,9.10
2023-12-09T22:38:40.650Z,9.10
2023-12-09T22:41:08.801Z,9.10
2023-12-09T22:43:37.347Z,9.10
2023-12-09T22:46:06.593Z,9.10
2023-12-09T22:48:34.864Z,9.10
2023-12-09T22:51:02.991Z,9.10
2023-12-09T22:53:33.198Z,9.10
2023-12-09T22:56:12.686Z,9.10
2023-12-09T22:58:42.405Z,9.10
2023-12-09T23:01:11.635Z,9.00
2023-12-09T23:03:40.104Z,9.00
2023-12-09T23:06:09.528Z,9.00
2023-12-09T23:08:40.630Z,9.00
2023-12-09T23:11:09.044Z,9.10
2023-12-09T23:13:37.407Z,9.10
2023-12-09T23:16:08.413Z,9.10
2023-12-09T23:18:36.781Z,9.10
2023-12-09T23:21:06.495Z,9.00
2023-12-09T23:23:34.963Z,9.00
2023-12-09T23:26:04.925Z,9.00
2023-12-09T23:28:34.914Z,9.00
2023-12-09T23:31:03.984Z,8.90
2023-12-09T23:33:33.300Z,8.90
2023-12-09T23:36:01.871Z,8.90
2023-12-09T23:38:29.960Z,8.90
2023-12-09T23:40:58.574Z,8.90
2023-12-09T23:43:28.379Z,8.80
2023-12-09T23:45:56.840Z,8.80
2023-12-09T23:48:25.354Z,8.80
2023-12-09T23:50:53.477Z,8.80
2023-12-09T23:53:22.022Z,8.80
2023-12-09T23:55:50.422Z,8.80
2023-12-09T23:58:18.609Z,8.80
